sensor_id;sensor_type;location;lat;lon;timestamp;P1;durP1;ratioP1;P2;durP2;ratioP2
20381;SDS011;10350;51.280;12.400;2023-12-04T00:02:17;43.75;;;40.17;;
20381;SDS011;10350;51.280;12.400;2023-12-04T00:04:43;41.05;;;37.97;;
20381;SDS011;10350;51.280;12.400;2023-12-04T00:07:08;42.53;;;39.30;;
20381;SDS011;10350;51.280;12.400;2023-12-04T00:09:34;42.28;;;39.08;;
20381;SDS011;10350;51.280;12.400;2023-12-04T00:12:00;42.22;;;39.15;;
20381;SDS011;10350;51.280;12.400;2023-12-04T00:14:26;45.58;;;42.15;;
20381;SDS011;10350;51.280;12.400;2023-12-04T00:16:52;42.08;;;38.78;;
20381;SDS011;10350;51.280;12.400;2023-12-04T00:19:18;41.80;;;38.50;;
20381;SDS011;10350;51.280;12.400;2023-12-04T00:21:44;41.90;;;38.63;;
20381;SDS011;10350;51.280;12.400;2023-12-04T00:24:10;44.05;;;40.70;;
20381;SDS011;10350;51.280;12.400;2023-12-04T00:26:36;42.95;;;39.78;;
20381;SDS011;10350;51.280;12.400;2023-12-04T00:29:02;44.63;;;41.25;;
20381;SDS011;10350;51.280;12.400;2023-12-04T00:31:28;44.42;;;41.08;;
20381;SDS011;10350;51.280;12.400;2023-12-04T00:33:53;43.53;;;40.47;;
20381;SDS011;10350;51.280;12.400;2023-12-04T00:36:19;42.30;;;39.20;;
20381;SDS011;10350;51.280;12.400;2023-12-04T00:38:45;44.55;;;41.05;;
20381;SDS011;10350;51.280;12.400;2023-12-04T00:41:11;45.08;;;41.65;;
20381;SDS011;10350;51.280;12.400;2023-12-04T00:43:37;43.20;;;39.85;;
20381;SDS011;10350;51.280;12.400;2023-12-04T00:46:03;45.15;;;41.72;;
20381;SDS011;10350;51.280;12.400;2023-12-04T00:48:29;42.38;;;39.25;;
20381;SDS011;10350;51.280;12.400;2023-12-04T00:50:55;42.67;;;39.47;;
20381;SDS011;10350;51.280;12.400;2023-12-04T00:53:21;42.17;;;38.88;;
20381;SDS011;10350;51.280;12.400;2023-12-04T00:55:47;41.92;;;38.47;;
20381;SDS011;10350;51.280;12.400;2023-12-04T00:58:13;41.40;;;38.40;;
20381;SDS011;10350;51.280;12.400;2023-12-04T01:00:39;43.35;;;40.03;;
20381;SDS011;10350;51.280;12.400;2023-12-04T01:03:05;41.30;;;38.08;;
20381;SDS011;10350;51.280;12.400;2023-12-04T01:05:31;41.70;;;38.08;;
20381;SDS011;10350;51.280;12.400;2023-12-04T01:07:57;40.03;;;37.17;;
20381;SDS011;10350;51.280;12.400;2023-12-04T01:10:23;40.53;;;37.38;;
20381;SDS011;10350;51.280;12.400;2023-12-04T01:12:49;40.95;;;37.70;;
20381;SDS011;10350;51.280;12.400;2023-12-04T01:15:14;38.33;;;35.65;;
20381;SDS011;10350;51.280;12.400;2023-12-04T01:17:40;40.78;;;37.75;;
20381;SDS011;10350;51.280;12.400;2023-12-04T01:20:06;38.65;;;35.63;;
20381;SDS011;10350;51.280;12.400;2023-12-04T01:22:32;39.15;;;36.53;;
20381;SDS011;10350;51.280;12.400;2023-12-04T01:24:58;40.30;;;37.55;;
20381;SDS011;10350;51.280;12.400;2023-12-04T01:27:24;39.55;;;36.97;;
20381;SDS011;10350;51.280;12.400;2023-12-04T01:29:50;41.25;;;38.40;;
20381;SDS011;10350;51.280;12.400;2023-12-04T01:32:16;39.67;;;36.72;;
20381;SDS011;10350;51.280;12.400;2023-12-04T01:34:42;38.67;;;35.50;;
20381;SDS011;10350;51.280;12.400;2023-12-04T01:37:08;41.63;;;38.17;;
20381;SDS011;10350;51.280;12.400;2023-12-04T01:39:34;38.70;;;35.95;;
20381;SDS011;10350;51.280;12.400;2023-12-04T01:42:00;37.78;;;35.20;;
20381;SDS011;10350;51.280;12.400;2023-12-04T01:44:26;38.75;;;35.72;;
20381;SDS011;10350;51.280;12.400;2023-12-04T01:46:52;39.75;;;36.53;;
20381;SDS011;10350;51.280;12.400;2023-12-04T01:49:18;39.70;;;36.47;;
20381;SDS011;10350;51.280;12.400;2023-12-04T01:51:45;38.35;;;35.70;;
20381;SDS011;10350;51.280;12.400;2023-12-04T01:54:11;38.15;;;35.63;;
20381;SDS011;10350;51.280;12.400;2023-12-04T01:56:37;39.50;;;36.30;;
20381;SDS011;10350;51.280;12.400;2023-12-04T01:59:03;39.95;;;37.15;;
20381;SDS011;10350;51.280;12.400;2023-12-04T02:01:30;40.55;;;37.20;;
20381;SDS011;10350;51.280;12.400;2023-12-04T02:03:56;39.38;;;36.53;;
20381;SDS011;10350;51.280;12.400;2023-12-04T02:06:22;39.80;;;37.05;;
20381;SDS011;10350;51.280;12.400;2023-12-04T02:08:50;37.78;;;35.20;;
20381;SDS011;10350;51.280;12.400;2023-12-04T02:11:16;38.40;;;35.47;;
20381;SDS011;10350;51.280;12.400;2023-12-04T02:13:41;36.55;;;34.00;;
20381;SDS011;10350;51.280;12.400;2023-12-04T02:16:09;36.22;;;33.67;;
20381;SDS011;10350;51.280;12.400;2023-12-04T02:18:35;36.42;;;33.70;;
20381;SDS011;10350;51.280;12.400;2023-12-04T02:21:01;37.10;;;34.38;;
20381;SDS011;10350;51.280;12.400;2023-12-04T02:23:27;36.05;;;33.15;;
20381;SDS011;10350;51.280;12.400;2023-12-04T02:25:54;33.95;;;31.52;;
20381;SDS011;10350;51.280;12.400;2023-12-04T02:28:24;35.70;;;33.03;;
20381;SDS011;10350;51.280;12.400;2023-12-04T02:30:51;36.45;;;33.45;;
20381;SDS011;10350;51.280;12.400;2023-12-04T02:33:17;37.15;;;33.95;;
20381;SDS011;10350;51.280;12.400;2023-12-04T02:35:44;33.80;;;31.48;;
20381;SDS011;10350;51.280;12.400;2023-12-04T02:38:10;37.38;;;33.88;;
20381;SDS011;10350;51.280;12.400;2023-12-04T02:40:37;35.85;;;32.95;;
20381;SDS011;10350;51.280;12.400;2023-12-04T02:43:03;35.60;;;33.03;;
20381;SDS011;10350;51.280;12.400;2023-12-04T02:45:29;34.65;;;32.33;;
20381;SDS011;10350;51.280;12.400;2023-12-04T02:47:55;34.20;;;31.17;;
20381;SDS011;10350;51.280;12.400;2023-12-04T02:50:21;35.72;;;32.90;;
20381;SDS011;10350;51.280;12.400;2023-12-04T02:52:47;35.88;;;33.30;;
20381;SDS011;10350;51.280;12.400;2023-12-04T02:55:12;34.95;;;32.22;;
20381;SDS011;10350;51.280;12.400;2023-12-04T02:57:38;34.67;;;32.13;;
20381;SDS011;10350;51.280;12.400;2023-12-04T03:00:04;34.58;;;31.67;;
20381;SDS011;10350;51.280;12.400;2023-12-04T03:02:31;32.85;;;30.55;;
20381;SDS011;10350;51.280;12.400;2023-12-04T03:04:57;34.13;;;31.40;;
20381;SDS011;10350;51.280;12.400;2023-12-04T03:07:23;35.22;;;32.40;;
20381;SDS011;10350;51.280;12.400;2023-12-04T03:09:49;34.15;;;31.50;;
20381;SDS011;10350;51.280;12.400;2023-12-04T03:12:18;32.08;;;29.88;;
20381;SDS011;10350;51.280;12.400;2023-12-04T03:14:44;32.10;;;29.98;;
20381;SDS011;10350;51.280;12.400;2023-12-04T03:17:10;33.08;;;30.88;;
20381;SDS011;10350;51.280;12.400;2023-12-04T03:19:36;34.30;;;31.63;;
20381;SDS011;10350;51.280;12.400;2023-12-04T03:22:02;34.20;;;31.38;;
20381;SDS011;10350;51.280;12.400;2023-12-04T03:24:28;31.58;;;29.33;;
20381;SDS011;10350;51.280;12.400;2023-12-04T03:26:54;34.53;;;32.15;;
20381;SDS011;10350;51.280;12.400;2023-12-04T03:29:20;32.42;;;30.13;;
20381;SDS011;10350;51.280;12.400;2023-12-04T03:31:46;34.40;;;31.33;;
20381;SDS011;10350;51.280;12.400;2023-12-04T03:34:12;32.67;;;30.38;;
20381;SDS011;10350;51.280;12.400;2023-12-04T03:36:37;31.38;;;28.98;;
20381;SDS011;10350;51.280;12.400;2023-12-04T03:39:03;35.88;;;32.78;;
20381;SDS011;10350;51.280;12.400;2023-12-04T03:41:29;31.35;;;28.45;;
20381;SDS011;10350;51.280;12.400;2023-12-04T03:43:55;32.20;;;29.75;;
20381;SDS011;10350;51.280;12.400;2023-12-04T03:46:21;32.53;;;30.02;;
20381;SDS011;10350;51.280;12.400;2023-12-04T03:48:47;30.90;;;28.63;;
20381;SDS011;10350;51.280;12.400;2023-12-04T03:51:13;31.60;;;29.23;;
20381;SDS011;10350;51.280;12.400;2023-12-04T03:53:39;32.05;;;29.65;;
20381;SDS011;10350;51.280;12.400;2023-12-04T03:56:05;31.67;;;29.65;;
20381;SDS011;10350;51.280;12.400;2023-12-04T03:58:31;31.42;;;29.05;;
20381;SDS011;10350;51.280;12.400;2023-12-04T04:00:57;30.08;;;27.95;;
20381;SDS011;10350;51.280;12.400;2023-12-04T04:03:23;31.75;;;29.48;;
20381;SDS011;10350;51.280;12.400;2023-12-04T04:05:49;33.00;;;30.60;;
20381;SDS011;10350;51.280;12.400;2023-12-04T04:08:15;32.65;;;29.65;;
20381;SDS011;10350;51.280;12.400;2023-12-04T04:10:41;33.75;;;31.02;;
20381;SDS011;10350;51.280;12.400;2023-12-04T04:13:07;31.40;;;29.10;;
20381;SDS011;10350;51.280;12.400;2023-12-04T04:15:33;30.63;;;28.52;;
20381;SDS011;10350;51.280;12.400;2023-12-04T04:17:58;29.50;;;27.02;;
20381;SDS011;10350;51.280;12.400;2023-12-04T04:20:24;29.00;;;26.85;;
20381;SDS011;10350;51.280;12.400;2023-12-04T04:22:50;31.00;;;28.85;;
20381;SDS011;10350;51.280;12.400;2023-12-04T04:25:16;30.67;;;28.40;;
20381;SDS011;10350;51.280;12.400;2023-12-04T04:27:43;29.63;;;27.23;;
20381;SDS011;10350;51.280;12.400;2023-12-04T04:30:09;30.20;;;28.05;;
20381;SDS011;10350;51.280;12.400;2023-12-04T04:32:35;32.70;;;30.27;;
20381;SDS011;10350;51.280;12.400;2023-12-04T04:35:01;29.98;;;27.60;;
20381;SDS011;10350;51.280;12.400;2023-12-04T04:37:28;30.00;;;27.90;;
20381;SDS011;10350;51.280;12.400;2023-12-04T04:39:53;30.42;;;28.25;;
20381;SDS011;10350;51.280;12.400;2023-12-04T04:42:19;29.67;;;27.63;;
20381;SDS011;10350;51.280;12.400;2023-12-04T04:44:45;33.22;;;30.58;;
20381;SDS011;10350;51.280;12.400;2023-12-04T04:47:11;30.65;;;28.40;;
20381;SDS011;10350;51.280;12.400;2023-12-04T04:49:37;32.30;;;29.98;;
20381;SDS011;10350;51.280;12.400;2023-12-04T04:52:03;29.80;;;27.60;;
20381;SDS011;10350;51.280;12.400;2023-12-04T04:54:32;30.40;;;28.33;;
20381;SDS011;10350;51.280;12.400;2023-12-04T04:56:58;31.85;;;29.48;;
20381;SDS011;10350;51.280;12.400;2023-12-04T04:59:24;29.38;;;27.38;;
20381;SDS011;10350;51.280;12.400;2023-12-04T05:01:52;29.70;;;27.58;;
20381;SDS011;10350;51.280;12.400;2023-12-04T05:04:18;30.20;;;27.98;;
20381;SDS011;10350;51.280;12.400;2023-12-04T05:06:43;30.20;;;28.30;;
20381;SDS011;10350;51.280;12.400;2023-12-04T05:09:09;29.42;;;27.60;;
20381;SDS011;10350;51.280;12.400;2023-12-04T05:11:35;30.17;;;28.23;;
20381;SDS011;10350;51.280;12.400;2023-12-04T05:14:01;30.15;;;27.90;;
20381;SDS011;10350;51.280;12.400;2023-12-04T05:16:27;31.20;;;28.63;;
20381;SDS011;10350;51.280;12.400;2023-12-04T05:18:53;30.35;;;28.05;;
20381;SDS011;10350;51.280;12.400;2023-12-04T05:21:19;27.95;;;26.15;;
20381;SDS011;10350;51.280;12.400;2023-12-04T05:23:45;29.23;;;27.05;;
20381;SDS011;10350;51.280;12.400;2023-12-04T05:26:11;30.20;;;28.35;;
20381;SDS011;10350;51.280;12.400;2023-12-04T05:28:37;30.20;;;28.15;;
20381;SDS011;10350;51.280;12.400;2023-12-04T05:31:03;29.45;;;27.67;;
20381;SDS011;10350;51.280;12.400;2023-12-04T05:33:28;29.85;;;27.85;;
20381;SDS011;10350;51.280;12.400;2023-12-04T05:35:54;27.58;;;25.98;;
20381;SDS011;10350;51.280;12.400;2023-12-04T05:38:20;31.92;;;29.75;;
20381;SDS011;10350;51.280;12.400;2023-12-04T05:40:46;28.90;;;27.08;;
20381;SDS011;10350;51.280;12.400;2023-12-04T05:43:13;29.50;;;27.70;;
20381;SDS011;10350;51.280;12.400;2023-12-04T05:45:39;28.65;;;26.85;;
20381;SDS011;10350;51.280;12.400;2023-12-04T05:48:05;30.75;;;28.77;;
20381;SDS011;10350;51.280;12.400;2023-12-04T05:50:31;29.08;;;27.35;;
20381;SDS011;10350;51.280;12.400;2023-12-04T05:52:57;28.17;;;26.45;;
20381;SDS011;10350;51.280;12.400;2023-12-04T05:55:23;29.05;;;27.38;;
20381;SDS011;10350;51.280;12.400;2023-12-04T05:57:49;29.30;;;27.38;;
20381;SDS011;10350;51.280;12.400;2023-12-04T06:00:15;29.48;;;27.58;;
20381;SDS011;10350;51.280;12.400;2023-12-04T06:02:41;28.60;;;26.70;;
20381;SDS011;10350;51.280;12.400;2023-12-04T06:05:08;28.27;;;26.52;;
20381;SDS011;10350;51.280;12.400;2023-12-04T06:07:36;30.15;;;27.95;;
20381;SDS011;10350;51.280;12.400;2023-12-04T06:10:02;29.42;;;27.55;;
20381;SDS011;10350;51.280;12.400;2023-12-04T06:12:32;29.85;;;27.95;;
20381;SDS011;10350;51.280;12.400;2023-12-04T06:14:58;27.85;;;26.10;;
20381;SDS011;10350;51.280;12.400;2023-12-04T06:17:25;27.67;;;26.20;;
20381;SDS011;10350;51.280;12.400;2023-12-04T06:19:50;28.70;;;26.60;;
20381;SDS011;10350;51.280;12.400;2023-12-04T06:22:17;29.85;;;27.95;;
20381;SDS011;10350;51.280;12.400;2023-12-04T06:24:45;29.75;;;27.83;;
20381;SDS011;10350;51.280;12.400;2023-12-04T06:27:12;29.13;;;27.30;;
20381;SDS011;10350;51.280;12.400;2023-12-04T06:29:39;29.27;;;27.65;;
20381;SDS011;10350;51.280;12.400;2023-12-04T06:32:05;28.65;;;26.95;;
20381;SDS011;10350;51.280;12.400;2023-12-04T06:34:32;28.33;;;26.33;;
20381;SDS011;10350;51.280;12.400;2023-12-04T06:36:58;27.55;;;25.65;;
20381;SDS011;10350;51.280;12.400;2023-12-04T06:39:25;27.60;;;25.80;;
20381;SDS011;10350;51.280;12.400;2023-12-04T06:44:19;28.15;;;26.63;;
20381;SDS011;10350;51.280;12.400;2023-12-04T06:46:46;27.35;;;25.30;;
20381;SDS011;10350;51.280;12.400;2023-12-04T06:49:15;27.40;;;25.85;;
20381;SDS011;10350;51.280;12.400;2023-12-04T06:51:42;27.17;;;25.55;;
20381;SDS011;10350;51.280;12.400;2023-12-04T06:54:08;36.92;;;34.47;;
20381;SDS011;10350;51.280;12.400;2023-12-04T06:56:34;29.25;;;27.55;;
20381;SDS011;10350;51.280;12.400;2023-12-04T06:59:00;27.70;;;26.00;;
20381;SDS011;10350;51.280;12.400;2023-12-04T07:01:26;27.90;;;26.38;;
20381;SDS011;10350;51.280;12.400;2023-12-04T07:03:55;29.05;;;27.45;;
20381;SDS011;10350;51.280;12.400;2023-12-04T07:06:21;27.98;;;26.27;;
20381;SDS011;10350;51.280;12.400;2023-12-04T07:08:47;28.10;;;26.27;;
20381;SDS011;10350;51.280;12.400;2023-12-04T07:11:13;27.10;;;25.27;;
20381;SDS011;10350;51.280;12.400;2023-12-04T07:13:40;29.83;;;27.70;;
20381;SDS011;10350;51.280;12.400;2023-12-04T07:16:07;27.58;;;26.02;;
20381;SDS011;10350;51.280;12.400;2023-12-04T07:18:33;27.00;;;25.33;;
20381;SDS011;10350;51.280;12.400;2023-12-04T07:20:59;30.42;;;28.42;;
20381;SDS011;10350;51.280;12.400;2023-12-04T07:23:25;29.10;;;27.30;;
20381;SDS011;10350;51.280;12.400;2023-12-04T07:25:51;26.73;;;25.15;;
20381;SDS011;10350;51.280;12.400;2023-12-04T07:28:17;29.33;;;27.40;;
20381;SDS011;10350;51.280;12.400;2023-12-04T07:30:43;28.00;;;26.20;;
20381;SDS011;10350;51.280;12.400;2023-12-04T07:33:09;28.67;;;26.88;;
20381;SDS011;10350;51.280;12.400;2023-12-04T07:35:35;27.58;;;25.88;;
20381;SDS011;10350;51.280;12.400;2023-12-04T07:38:01;28.27;;;26.55;;
20381;SDS011;10350;51.280;12.400;2023-12-04T07:40:28;26.02;;;24.42;;
20381;SDS011;10350;51.280;12.400;2023-12-04T07:42:53;27.25;;;25.55;;
20381;SDS011;10350;51.280;12.400;2023-12-04T07:45:19;29.13;;;27.00;;
20381;SDS011;10350;51.280;12.400;2023-12-04T07:47:46;28.67;;;26.92;;
20381;SDS011;10350;51.280;12.400;2023-12-04T07:50:12;27.90;;;26.20;;
20381;SDS011;10350;51.280;12.400;2023-12-04T07:52:38;28.95;;;26.90;;
20381;SDS011;10350;51.280;12.400;2023-12-04T07:55:04;28.90;;;27.10;;
20381;SDS011;10350;51.280;12.400;2023-12-04T07:57:30;29.98;;;27.95;;
20381;SDS011;10350;51.280;12.400;2023-12-04T07:59:56;29.50;;;27.70;;
20381;SDS011;10350;51.280;12.400;2023-12-04T08:02:22;30.17;;;27.92;;
20381;SDS011;10350;51.280;12.400;2023-12-04T08:04:48;29.10;;;27.10;;
20381;SDS011;10350;51.280;12.400;2023-12-04T08:07:14;29.58;;;27.67;;
20381;SDS011;10350;51.280;12.400;2023-12-04T08:09:40;29.17;;;26.88;;
20381;SDS011;10350;51.280;12.400;2023-12-04T08:12:06;30.67;;;28.58;;
20381;SDS011;10350;51.280;12.400;2023-12-04T08:14:32;29.95;;;28.00;;
20381;SDS011;10350;51.280;12.400;2023-12-04T08:16:58;29.75;;;27.85;;
20381;SDS011;10350;51.280;12.400;2023-12-04T08:19:24;30.45;;;28.35;;
20381;SDS011;10350;51.280;12.400;2023-12-04T08:21:50;27.35;;;25.65;;
20381;SDS011;10350;51.280;12.400;2023-12-04T08:24:16;28.70;;;26.83;;
20381;SDS011;10350;51.280;12.400;2023-12-04T08:26:43;27.05;;;25.45;;
20381;SDS011;10350;51.280;12.400;2023-12-04T08:29:09;29.33;;;27.52;;
20381;SDS011;10350;51.280;12.400;2023-12-04T08:31:35;29.35;;;27.52;;
20381;SDS011;10350;51.280;12.400;2023-12-04T08:34:01;27.55;;;25.85;;
20381;SDS011;10350;51.280;12.400;2023-12-04T08:36:27;29.65;;;27.52;;
20381;SDS011;10350;51.280;12.400;2023-12-04T08:38:52;27.60;;;25.88;;
20381;SDS011;10350;51.280;12.400;2023-12-04T08:41:19;28.40;;;26.35;;
20381;SDS011;10350;51.280;12.400;2023-12-04T08:43:45;28.05;;;26.35;;
20381;SDS011;10350;51.280;12.400;2023-12-04T08:46:12;27.88;;;26.20;;
20381;SDS011;10350;51.280;12.400;2023-12-04T08:48:39;30.77;;;28.88;;
20381;SDS011;10350;51.280;12.400;2023-12-04T08:51:05;30.10;;;27.70;;
20381;SDS011;10350;51.280;12.400;2023-12-04T08:53:33;28.05;;;26.33;;
20381;SDS011;10350;51.280;12.400;2023-12-04T08:55:59;29.05;;;27.35;;
20381;SDS011;10350;51.280;12.400;2023-12-04T08:58:25;31.20;;;29.25;;
20381;SDS011;10350;51.280;12.400;2023-12-04T09:00:51;33.92;;;31.67;;
20381;SDS011;10350;51.280;12.400;2023-12-04T09:03:16;33.67;;;31.50;;
20381;SDS011;10350;51.280;12.400;2023-12-04T09:05:44;35.67;;;33.53;;
20381;SDS011;10350;51.280;12.400;2023-12-04T09:08:10;35.28;;;32.97;;
20381;SDS011;10350;51.280;12.400;2023-12-04T09:10:36;34.85;;;32.85;;
20381;SDS011;10350;51.280;12.400;2023-12-04T09:13:02;35.17;;;32.95;;
20381;SDS011;10350;51.280;12.400;2023-12-04T09:15:27;37.28;;;35.05;;
20381;SDS011;10350;51.280;12.400;2023-12-04T09:17:53;34.35;;;32.20;;
20381;SDS011;10350;51.280;12.400;2023-12-04T09:20:19;38.30;;;35.88;;
20381;SDS011;10350;51.280;12.400;2023-12-04T09:22:45;36.35;;;34.00;;
20381;SDS011;10350;51.280;12.400;2023-12-04T09:25:11;35.30;;;33.17;;
20381;SDS011;10350;51.280;12.400;2023-12-04T09:27:37;35.63;;;33.33;;
20381;SDS011;10350;51.280;12.400;2023-12-04T09:30:03;36.13;;;33.88;;
20381;SDS011;10350;51.280;12.400;2023-12-04T09:32:29;43.00;;;38.78;;
20381;SDS011;10350;51.280;12.400;2023-12-04T09:34:55;34.45;;;32.40;;
20381;SDS011;10350;51.280;12.400;2023-12-04T09:37:21;35.58;;;33.28;;
20381;SDS011;10350;51.280;12.400;2023-12-04T09:39:47;34.22;;;31.98;;
20381;SDS011;10350;51.280;12.400;2023-12-04T09:42:14;32.10;;;30.30;;
20381;SDS011;10350;51.280;12.400;2023-12-04T09:44:41;35.05;;;32.80;;
20381;SDS011;10350;51.280;12.400;2023-12-04T09:47:07;31.73;;;29.58;;
20381;SDS011;10350;51.280;12.400;2023-12-04T09:49:33;31.45;;;28.85;;
20381;SDS011;10350;51.280;12.400;2023-12-04T09:51:59;29.70;;;27.92;;
20381;SDS011;10350;51.280;12.400;2023-12-04T09:54:26;30.38;;;28.38;;
20381;SDS011;10350;51.280;12.400;2023-12-04T09:56:52;28.27;;;26.40;;
20381;SDS011;10350;51.280;12.400;2023-12-04T09:59:19;26.45;;;24.83;;
20381;SDS011;10350;51.280;12.400;2023-12-04T10:01:49;27.10;;;25.35;;
20381;SDS011;10350;51.280;12.400;2023-12-04T10:04:15;27.33;;;25.63;;
20381;SDS011;10350;51.280;12.400;2023-12-04T10:06:41;28.35;;;26.40;;
20381;SDS011;10350;51.280;12.400;2023-12-04T10:09:08;28.05;;;26.15;;
20381;SDS011;10350;51.280;12.400;2023-12-04T10:11:40;26.10;;;24.20;;
20381;SDS011;10350;51.280;12.400;2023-12-04T10:14:13;27.67;;;26.02;;
20381;SDS011;10350;51.280;12.400;2023-12-04T10:16:39;28.00;;;26.38;;
20381;SDS011;10350;51.280;12.400;2023-12-04T10:19:18;27.02;;;24.98;;
20381;SDS011;10350;51.280;12.400;2023-12-04T10:21:45;25.63;;;24.08;;
20381;SDS011;10350;51.280;12.400;2023-12-04T10:24:12;27.73;;;25.93;;
20381;SDS011;10350;51.280;12.400;2023-12-04T10:26:43;26.30;;;24.75;;
20381;SDS011;10350;51.280;12.400;2023-12-04T10:29:16;27.35;;;25.55;;
20381;SDS011;10350;51.280;12.400;2023-12-04T10:31:41;27.50;;;25.83;;
20381;SDS011;10350;51.280;12.400;2023-12-04T10:34:07;25.75;;;24.10;;
20381;SDS011;10350;51.280;12.400;2023-12-04T10:36:36;27.20;;;25.08;;
20381;SDS011;10350;51.280;12.400;2023-12-04T10:39:02;26.50;;;24.80;;
20381;SDS011;10350;51.280;12.400;2023-12-04T10:41:31;26.92;;;25.13;;
20381;SDS011;10350;51.280;12.400;2023-12-04T10:43:58;27.73;;;25.75;;
20381;SDS011;10350;51.280;12.400;2023-12-04T10:46:25;25.90;;;24.20;;
20381;SDS011;10350;51.280;12.400;2023-12-04T10:48:51;25.10;;;23.58;;
20381;SDS011;10350;51.280;12.400;2023-12-04T10:51:18;25.85;;;24.25;;
20381;SDS011;10350;51.280;12.400;2023-12-04T10:53:50;26.17;;;24.58;;
20381;SDS011;10350;51.280;12.400;2023-12-04T10:56:25;24.75;;;23.25;;
20381;SDS011;10350;51.280;12.400;2023-12-04T10:58:52;27.02;;;25.33;;
20381;SDS011;10350;51.280;12.400;2023-12-04T11:01:19;25.77;;;23.77;;
20381;SDS011;10350;51.280;12.400;2023-12-04T11:03:45;26.52;;;24.73;;
20381;SDS011;10350;51.280;12.400;2023-12-04T11:06:13;26.65;;;24.85;;
20381;SDS011;10350;51.280;12.400;2023-12-04T11:08:40;26.55;;;24.52;;
20381;SDS011;10350;51.280;12.400;2023-12-04T11:11:12;25.63;;;24.03;;
20381;SDS011;10350;51.280;12.400;2023-12-04T11:13:39;26.55;;;24.75;;
20381;SDS011;10350;51.280;12.400;2023-12-04T11:16:18;26.83;;;24.83;;
20381;SDS011;10350;51.280;12.400;2023-12-04T11:18:53;25.38;;;23.88;;
20381;SDS011;10350;51.280;12.400;2023-12-04T11:21:20;27.38;;;25.77;;
20381;SDS011;10350;51.280;12.400;2023-12-04T11:23:47;27.27;;;25.48;;
20381;SDS011;10350;51.280;12.400;2023-12-04T11:26:13;26.67;;;25.10;;
20381;SDS011;10350;51.280;12.400;2023-12-04T11:28:40;26.80;;;25.10;;
20381;SDS011;10350;51.280;12.400;2023-12-04T11:31:06;27.20;;;25.50;;
20381;SDS011;10350;51.280;12.400;2023-12-04T11:33:36;27.30;;;25.20;;
20381;SDS011;10350;51.280;12.400;2023-12-04T11:36:18;24.50;;;23.10;;
20381;SDS011;10350;51.280;12.400;2023-12-04T11:38:45;25.85;;;24.33;;
20381;SDS011;10350;51.280;12.400;2023-12-04T11:41:14;24.30;;;22.95;;
20381;SDS011;10350;51.280;12.400;2023-12-04T11:43:45;25.55;;;24.10;;
20381;SDS011;10350;51.280;12.400;2023-12-04T11:46:24;25.27;;;23.88;;
20381;SDS011;10350;51.280;12.400;2023-12-04T11:48:54;25.38;;;23.73;;
20381;SDS011;10350;51.280;12.400;2023-12-04T11:54:07;24.75;;;23.30;;
20381;SDS011;10350;51.280;12.400;2023-12-04T11:56:33;25.48;;;23.67;;
20381;SDS011;10350;51.280;12.400;2023-12-04T11:59:03;25.48;;;24.00;;
20381;SDS011;10350;51.280;12.400;2023-12-04T12:01:33;25.75;;;24.15;;
20381;SDS011;10350;51.280;12.400;2023-12-04T12:03:59;27.00;;;25.05;;
20381;SDS011;10350;51.280;12.400;2023-12-04T12:06:32;25.13;;;23.60;;
20381;SDS011;10350;51.280;12.400;2023-12-04T12:08:58;26.50;;;24.70;;
20381;SDS011;10350;51.280;12.400;2023-12-04T12:11:29;28.05;;;25.98;;
20381;SDS011;10350;51.280;12.400;2023-12-04T12:13:56;25.42;;;23.48;;
20381;SDS011;10350;51.280;12.400;2023-12-04T12:16:22;25.77;;;24.00;;
20381;SDS011;10350;51.280;12.400;2023-12-04T12:18:48;26.75;;;25.17;;
20381;SDS011;10350;51.280;12.400;2023-12-04T12:21:14;26.95;;;25.30;;
20381;SDS011;10350;51.280;12.400;2023-12-04T12:23:40;27.63;;;25.85;;
20381;SDS011;10350;51.280;12.400;2023-12-04T12:26:06;26.88;;;25.38;;
20381;SDS011;10350;51.280;12.400;2023-12-04T12:28:34;28.67;;;26.95;;
20381;SDS011;10350;51.280;12.400;2023-12-04T12:31:01;28.33;;;26.70;;
20381;SDS011;10350;51.280;12.400;2023-12-04T12:33:28;26.67;;;25.07;;
20381;SDS011;10350;51.280;12.400;2023-12-04T12:35:54;27.00;;;25.15;;
20381;SDS011;10350;51.280;12.400;2023-12-04T12:38:20;25.75;;;24.10;;
20381;SDS011;10350;51.280;12.400;2023-12-04T12:40:46;28.83;;;27.02;;
20381;SDS011;10350;51.280;12.400;2023-12-04T12:43:12;25.73;;;24.10;;
20381;SDS011;10350;51.280;12.400;2023-12-04T12:45:41;26.50;;;24.83;;
20381;SDS011;10350;51.280;12.400;2023-12-04T12:48:14;24.75;;;23.02;;
20381;SDS011;10350;51.280;12.400;2023-12-04T12:50:43;25.15;;;23.65;;
20381;SDS011;10350;51.280;12.400;2023-12-04T12:53:12;26.23;;;24.58;;
20381;SDS011;10350;51.280;12.400;2023-12-04T12:55:42;24.77;;;23.20;;
20381;SDS011;10350;51.280;12.400;2023-12-04T12:58:11;25.48;;;23.88;;
20381;SDS011;10350;51.280;12.400;2023-12-04T13:00:40;27.25;;;25.30;;
20381;SDS011;10350;51.280;12.400;2023-12-04T13:03:13;24.35;;;22.85;;
20381;SDS011;10350;51.280;12.400;2023-12-04T13:05:39;23.83;;;22.50;;
20381;SDS011;10350;51.280;12.400;2023-12-04T13:08:05;27.00;;;25.33;;
20381;SDS011;10350;51.280;12.400;2023-12-04T13:10:31;25.02;;;23.48;;
20381;SDS011;10350;51.280;12.400;2023-12-04T13:12:57;25.10;;;23.70;;
20381;SDS011;10350;51.280;12.400;2023-12-04T13:15:24;24.92;;;23.25;;
20381;SDS011;10350;51.280;12.400;2023-12-04T13:17:50;25.83;;;24.23;;
20381;SDS011;10350;51.280;12.400;2023-12-04T13:20:16;25.20;;;23.50;;
20381;SDS011;10350;51.280;12.400;2023-12-04T13:22:42;25.63;;;24.02;;
20381;SDS011;10350;51.280;12.400;2023-12-04T13:25:08;25.15;;;23.65;;
20381;SDS011;10350;51.280;12.400;2023-12-04T13:27:35;24.52;;;22.83;;
20381;SDS011;10350;51.280;12.400;2023-12-04T13:30:03;26.83;;;25.08;;
20381;SDS011;10350;51.280;12.400;2023-12-04T13:32:30;27.10;;;25.30;;
20381;SDS011;10350;51.280;12.400;2023-12-04T13:35:05;24.85;;;23.30;;
20381;SDS011;10350;51.280;12.400;2023-12-04T13:37:31;24.60;;;23.20;;
20381;SDS011;10350;51.280;12.400;2023-12-04T13:39:57;25.23;;;23.52;;
20381;SDS011;10350;51.280;12.400;2023-12-04T13:42:23;25.73;;;24.17;;
20381;SDS011;10350;51.280;12.400;2023-12-04T13:45:08;24.92;;;23.27;;
20381;SDS011;10350;51.280;12.400;2023-12-04T13:47:34;25.33;;;23.83;;
20381;SDS011;10350;51.280;12.400;2023-12-04T13:50:01;27.52;;;25.67;;
20381;SDS011;10350;51.280;12.400;2023-12-04T13:52:27;24.58;;;23.08;;
20381;SDS011;10350;51.280;12.400;2023-12-04T13:54:58;25.05;;;23.23;;
20381;SDS011;10350;51.280;12.400;2023-12-04T13:57:24;26.23;;;24.23;;
20381;SDS011;10350;51.280;12.400;2023-12-04T13:59:57;24.92;;;23.35;;
20381;SDS011;10350;51.280;12.400;2023-12-04T14:02:23;25.75;;;24.05;;
20381;SDS011;10350;51.280;12.400;2023-12-04T14:04:49;25.58;;;23.75;;
20381;SDS011;10350;51.280;12.400;2023-12-04T14:07:15;24.58;;;23.02;;
20381;SDS011;10350;51.280;12.400;2023-12-04T14:09:42;24.88;;;23.25;;
20381;SDS011;10350;51.280;12.400;2023-12-04T14:12:09;28.23;;;26.33;;